sensor_id;sensor_type;location;lat;lon;timestamp;P1;durP1;ratioP1;P2;durP2;ratioP2
23990;SDS011;12205;50.600;4.608;2023-06-19T00:00:45;5.00;;;1.30;;
23990;SDS011;12205;50.600;4.608;2023-06-19T00:03:12;4.57;;;1.42;;
23990;SDS011;12205;50.600;4.608;2023-06-19T00:05:39;6.05;;;1.42;;
23990;SDS011;12205;50.600;4.608;2023-06-19T00:08:06;5.55;;;1.58;;
23990;SDS011;12205;50.600;4.608;2023-06-19T00:10:33;8.88;;;1.67;;
23990;SDS011;12205;50.600;4.608;2023-06-19T00:13:02;6.28;;;1.48;;
23990;SDS011;12205;50.600;4.608;2023-06-19T00:15:29;5.65;;;1.60;;
23990;SDS011;12205;50.600;4.608;2023-06-19T00:17:56;5.63;;;1.70;;
23990;SDS011;12205;50.600;4.608;2023-06-19T00:20:23;4.93;;;1.52;;
23990;SDS011;12205;50.600;4.608;2023-06-19T00:22:51;8.70;;;1.50;;
23990;SDS011;12205;50.600;4.608;2023-06-19T00:25:18;9.00;;;1.60;;
23990;SDS011;12205;50.600;4.608;2023-06-19T00:27:45;4.65;;;1.58;;
23990;SDS011;12205;50.600;4.608;2023-06-19T00:30:14;5.55;;;1.60;;
23990;SDS011;12205;50.600;4.608;2023-06-19T00:32:42;5.53;;;1.83;;
23990;SDS011;12205;50.600;4.608;2023-06-19T00:35:13;6.72;;;1.50;;
23990;SDS011;12205;50.600;4.608;2023-06-19T00:37:41;7.60;;;1.65;;
23990;SDS011;12205;50.600;4.608;2023-06-19T00:40:12;5.15;;;1.27;;
23990;SDS011;12205;50.600;4.608;2023-06-19T00:42:45;6.03;;;1.70;;
23990;SDS011;12205;50.600;4.608;2023-06-19T00:45:13;4.50;;;1.40;;
23990;SDS011;12205;50.600;4.608;2023-06-19T00:47:41;6.15;;;1.38;;
23990;SDS011;12205;50.600;4.608;2023-06-19T00:50:09;7.45;;;1.45;;
23990;SDS011;12205;50.600;4.608;2023-06-19T00:52:37;4.63;;;1.20;;
23990;SDS011;12205;50.600;4.608;2023-06-19T00:55:05;4.13;;;1.40;;
23990;SDS011;12205;50.600;4.608;2023-06-19T00:57:35;6.00;;;1.65;;
23990;SDS011;12205;50.600;4.608;2023-06-19T01:00:05;4.45;;;1.48;;
23990;SDS011;12205;50.600;4.608;2023-06-19T01:02:35;5.85;;;1.50;;
23990;SDS011;12205;50.600;4.608;2023-06-19T01:05:02;5.57;;;1.60;;
23990;SDS011;12205;50.600;4.608;2023-06-19T01:07:31;3.28;;;1.30;;
23990;SDS011;12205;50.600;4.608;2023-06-19T01:10:10;7.30;;;1.75;;
23990;SDS011;12205;50.600;4.608;2023-06-19T01:12:44;6.30;;;1.42;;
23990;SDS011;12205;50.600;4.608;2023-06-19T01:15:18;8.65;;;1.50;;
23990;SDS011;12205;50.600;4.608;2023-06-19T01:17:50;5.68;;;1.55;;
23990;SDS011;12205;50.600;4.608;2023-06-19T01:20:21;6.55;;;1.25;;
23990;SDS011;12205;50.600;4.608;2023-06-19T01:22:51;3.78;;;1.33;;
23990;SDS011;12205;50.600;4.608;2023-06-19T01:25:22;5.55;;;1.17;;
23990;SDS011;12205;50.600;4.608;2023-06-19T01:27:49;3.50;;;1.40;;
23990;SDS011;12205;50.600;4.608;2023-06-19T01:30:17;5.35;;;1.52;;
23990;SDS011;12205;50.600;4.608;2023-06-19T01:32:47;6.10;;;1.60;;
23990;SDS011;12205;50.600;4.608;2023-06-19T01:35:23;6.60;;;1.40;;
23990;SDS011;12205;50.600;4.608;2023-06-19T01:37:58;3.95;;;1.40;;
23990;SDS011;12205;50.600;4.608;2023-06-19T01:40:28;10.80;;;1.80;;
23990;SDS011;12205;50.600;4.608;2023-06-19T01:42:57;5.00;;;1.42;;
23990;SDS011;12205;50.600;4.608;2023-06-19T01:45:28;5.13;;;1.67;;
23990;SDS011;12205;50.600;4.608;2023-06-19T01:47:59;7.90;;;1.48;;
23990;SDS011;12205;50.600;4.608;2023-06-19T01:50:26;5.40;;;1.60;;
23990;SDS011;12205;50.600;4.608;2023-06-19T01:52:53;4.45;;;1.50;;
23990;SDS011;12205;50.600;4.608;2023-06-19T01:55:22;7.53;;;1.63;;
23990;SDS011;12205;50.600;4.608;2023-06-19T01:57:50;6.95;;;1.95;;
23990;SDS011;12205;50.600;4.608;2023-06-19T02:00:17;4.07;;;1.25;;
23990;SDS011;12205;50.600;4.608;2023-06-19T02:02:45;7.88;;;1.65;;
23990;SDS011;12205;50.600;4.608;2023-06-19T02:05:12;4.22;;;1.45;;
23990;SDS011;12205;50.600;4.608;2023-06-19T02:07:40;5.32;;;1.60;;
23990;SDS011;12205;50.600;4.608;2023-06-19T02:10:07;9.35;;;2.10;;
23990;SDS011;12205;50.600;4.608;2023-06-19T02:12:37;5.40;;;1.80;;
23990;SDS011;12205;50.600;4.608;2023-06-19T02:15:05;4.93;;;1.67;;
23990;SDS011;12205;50.600;4.608;2023-06-19T02:17:33;7.68;;;1.58;;
23990;SDS011;12205;50.600;4.608;2023-06-19T02:20:02;6.32;;;1.60;;
23990;SDS011;12205;50.600;4.608;2023-06-19T02:22:32;9.97;;;2.00;;
23990;SDS011;12205;50.600;4.608;2023-06-19T02:25:00;5.13;;;1.50;;
23990;SDS011;12205;50.600;4.608;2023-06-19T02:27:27;4.10;;;1.52;;
23990;SDS011;12205;50.600;4.608;2023-06-19T02:29:55;4.93;;;1.80;;
23990;SDS011;12205;50.600;4.608;2023-06-19T02:32:22;6.28;;;2.00;;
23990;SDS011;12205;50.600;4.608;2023-06-19T02:34:50;9.15;;;2.30;;
23990;SDS011;12205;50.600;4.608;2023-06-19T02:37:17;11.60;;;3.08;;
23990;SDS011;12205;50.600;4.608;2023-06-19T02:39:44;9.50;;;3.05;;
23990;SDS011;12205;50.600;4.608;2023-06-19T02:42:13;12.38;;;3.25;;
23990;SDS011;12205;50.600;4.608;2023-06-19T02:44:42;10.95;;;2.90;;
23990;SDS011;12205;50.600;4.608;2023-06-19T02:47:10;8.30;;;2.72;;
23990;SDS011;12205;50.600;4.608;2023-06-19T02:49:37;11.13;;;2.40;;
23990;SDS011;12205;50.600;4.608;2023-06-19T02:52:05;9.15;;;2.20;;
23990;SDS011;12205;50.600;4.608;2023-06-19T02:54:33;8.85;;;2.20;;
23990;SDS011;12205;50.600;4.608;2023-06-19T02:57:00;6.35;;;1.73;;
23990;SDS011;12205;50.600;4.608;2023-06-19T02:59:27;10.90;;;2.10;;
23990;SDS011;12205;50.600;4.608;2023-06-19T03:01:55;7.93;;;2.20;;
23990;SDS011;12205;50.600;4.608;2023-06-19T03:04:23;6.07;;;1.92;;
23990;SDS011;12205;50.600;4.608;2023-06-19T03:06:52;9.77;;;2.10;;
23990;SDS011;12205;50.600;4.608;2023-06-19T03:09:19;7.90;;;2.45;;
23990;SDS011;12205;50.600;4.608;2023-06-19T03:11:46;8.95;;;2.30;;
23990;SDS011;12205;50.600;4.608;2023-06-19T03:14:13;7.30;;;2.42;;
23990;SDS011;12205;50.600;4.608;2023-06-19T03:16:41;10.57;;;2.75;;
23990;SDS011;12205;50.600;4.608;2023-06-19T03:19:08;9.82;;;2.65;;
23990;SDS011;12205;50.600;4.608;2023-06-19T03:21:36;14.15;;;3.03;;
23990;SDS011;12205;50.600;4.608;2023-06-19T03:24:03;10.27;;;3.28;;
23990;SDS011;12205;50.600;4.608;2023-06-19T03:26:32;11.45;;;2.90;;
23990;SDS011;12205;50.600;4.608;2023-06-19T03:29:01;11.50;;;3.00;;
23990;SDS011;12205;50.600;4.608;2023-06-19T03:31:39;13.80;;;3.53;;
23990;SDS011;12205;50.600;4.608;2023-06-19T03:34:07;16.38;;;3.63;;
23990;SDS011;12205;50.600;4.608;2023-06-19T03:36:37;7.93;;;3.03;;
23990;SDS011;12205;50.600;4.608;2023-06-19T03:39:08;11.07;;;3.00;;
23990;SDS011;12205;50.600;4.608;2023-06-19T03:41:36;10.05;;;3.03;;
23990;SDS011;12205;50.600;4.608;2023-06-19T03:44:03;8.82;;;3.05;;
23990;SDS011;12205;50.600;4.608;2023-06-19T03:46:31;10.48;;;2.50;;
23990;SDS011;12205;50.600;4.608;2023-06-19T03:48:58;11.93;;;2.65;;
23990;SDS011;12205;50.600;4.608;2023-06-19T03:51:27;6.88;;;2.10;;
23990;SDS011;12205;50.600;4.608;2023-06-19T03:53:56;10.43;;;2.90;;
23990;SDS011;12205;50.600;4.608;2023-06-19T03:56:23;11.52;;;3.58;;
23990;SDS011;12205;50.600;4.608;2023-06-19T03:58:50;6.82;;;2.95;;
23990;SDS011;12205;50.600;4.608;2023-06-19T04:01:17;8.32;;;2.90;;
23990;SDS011;12205;50.600;4.608;2023-06-19T04:03:44;7.22;;;2.53;;
23990;SDS011;12205;50.600;4.608;2023-06-19T04:06:12;7.15;;;2.65;;
23990;SDS011;12205;50.600;4.608;2023-06-19T04:08:39;7.50;;;2.58;;
23990;SDS011;12205;50.600;4.608;2023-06-19T04:11:07;7.03;;;2.30;;
23990;SDS011;12205;50.600;4.608;2023-06-19T04:13:34;7.05;;;2.45;;
23990;SDS011;12205;50.600;4.608;2023-06-19T04:16:01;7.15;;;2.53;;
23990;SDS011;12205;50.600;4.608;2023-06-19T04:18:29;7.03;;;2.60;;
23990;SDS011;12205;50.600;4.608;2023-06-19T04:20:56;7.20;;;2.38;;
23990;SDS011;12205;50.600;4.608;2023-06-19T04:23:23;7.57;;;2.35;;
23990;SDS011;12205;50.600;4.608;2023-06-19T04:25:50;9.15;;;2.30;;
23990;SDS011;12205;50.600;4.608;2023-06-19T04:28:18;9.55;;;2.92;;
23990;SDS011;12205;50.600;4.608;2023-06-19T04:30:45;7.25;;;2.75;;
23990;SDS011;12205;50.600;4.608;2023-06-19T04:33:13;9.15;;;2.90;;
23990;SDS011;12205;50.600;4.608;2023-06-19T04:35:40;6.63;;;2.55;;
23990;SDS011;12205;50.600;4.608;2023-06-19T04:38:07;7.50;;;2.80;;
23990;SDS011;12205;50.600;4.608;2023-06-19T04:40:39;8.63;;;2.90;;
23990;SDS011;12205;50.600;4.608;2023-06-19T04:43:08;8.15;;;2.90;;
23990;SDS011;12205;50.600;4.608;2023-06-19T04:45:37;7.82;;;2.83;;
23990;SDS011;12205;50.600;4.608;2023-06-19T04:48:04;8.77;;;3.20;;
23990;SDS011;12205;50.600;4.608;2023-06-19T04:50:31;8.00;;;3.15;;
23990;SDS011;12205;50.600;4.608;2023-06-19T04:52:58;5.97;;;2.58;;
23990;SDS011;12205;50.600;4.608;2023-06-19T04:55:25;9.80;;;3.35;;
23990;SDS011;12205;50.600;4.608;2023-06-19T04:57:52;7.55;;;2.85;;
23990;SDS011;12205;50.600;4.608;2023-06-19T05:00:20;12.88;;;3.50;;
23990;SDS011;12205;50.600;4.608;2023-06-19T05:02:50;7.72;;;3.53;;
23990;SDS011;12205;50.600;4.608;2023-06-19T05:05:17;7.28;;;3.03;;
23990;SDS011;12205;50.600;4.608;2023-06-19T05:07:44;6.38;;;2.78;;
23990;SDS011;12205;50.600;4.608;2023-06-19T05:10:11;7.80;;;2.80;;
23990;SDS011;12205;50.600;4.608;2023-06-19T05:12:38;7.45;;;2.53;;
23990;SDS011;12205;50.600;4.608;2023-06-19T05:15:06;8.45;;;2.70;;
23990;SDS011;12205;50.600;4.608;2023-06-19T05:17:34;8.85;;;2.45;;
23990;SDS011;12205;50.600;4.608;2023-06-19T05:20:05;6.63;;;2.72;;
23990;SDS011;12205;50.600;4.608;2023-06-19T05:22:34;8.98;;;2.40;;
23990;SDS011;12205;50.600;4.608;2023-06-19T05:25:02;8.20;;;2.33;;
23990;SDS011;12205;50.600;4.608;2023-06-19T05:27:29;9.13;;;2.15;;
23990;SDS011;12205;50.600;4.608;2023-06-19T05:29:56;7.40;;;2.03;;
23990;SDS011;12205;50.600;4.608;2023-06-19T05:32:23;9.40;;;2.60;;
23990;SDS011;12205;50.600;4.608;2023-06-19T05:34:50;7.03;;;2.30;;
23990;SDS011;12205;50.600;4.608;2023-06-19T05:37:19;4.88;;;2.13;;
23990;SDS011;12205;50.600;4.608;2023-06-19T05:39:47;6.13;;;2.20;;
23990;SDS011;12205;50.600;4.608;2023-06-19T05:42:14;6.78;;;2.20;;
23990;SDS011;12205;50.600;4.608;2023-06-19T05:44:41;5.75;;;1.88;;
23990;SDS011;12205;50.600;4.608;2023-06-19T05:47:08;7.10;;;2.10;;
23990;SDS011;12205;50.600;4.608;2023-06-19T05:49:35;7.35;;;1.95;;
23990;SDS011;12205;50.600;4.608;2023-06-19T05:52:02;7.97;;;2.10;;
23990;SDS011;12205;50.600;4.608;2023-06-19T05:54:32;7.80;;;2.28;;
23990;SDS011;12205;50.600;4.608;2023-06-19T05:56:59;8.02;;;2.33;;
23990;SDS011;12205;50.600;4.608;2023-06-19T05:59:26;6.40;;;2.20;;
23990;SDS011;12205;50.600;4.608;2023-06-19T06:01:53;10.63;;;2.20;;
23990;SDS011;12205;50.600;4.608;2023-06-19T06:04:20;11.93;;;2.28;;
23990;SDS011;12205;50.600;4.608;2023-06-19T06:06:48;6.80;;;2.28;;
23990;SDS011;12205;50.600;4.608;2023-06-19T06:09:15;10.55;;;2.65;;
23990;SDS011;12205;50.600;4.608;2023-06-19T06:11:43;5.93;;;2.33;;
23990;SDS011;12205;50.600;4.608;2023-06-19T06:14:10;11.38;;;2.55;;
23990;SDS011;12205;50.600;4.608;2023-06-19T06:16:37;6.72;;;2.47;;
23990;SDS011;12205;50.600;4.608;2023-06-19T06:19:04;9.23;;;2.83;;
23990;SDS011;12205;50.600;4.608;2023-06-19T06:21:32;7.47;;;2.40;;
23990;SDS011;12205;50.600;4.608;2023-06-19T06:24:00;8.82;;;2.42;;
23990;SDS011;12205;50.600;4.608;2023-06-19T06:26:27;13.32;;;2.97;;
23990;SDS011;12205;50.600;4.608;2023-06-19T06:28:56;6.80;;;2.90;;
23990;SDS011;12205;50.600;4.608;2023-06-19T06:31:23;13.15;;;3.10;;
23990;SDS011;12205;50.600;4.608;2023-06-19T06:33:50;7.13;;;2.50;;
23990;SDS011;12205;50.600;4.608;2023-06-19T06:36:17;8.77;;;2.80;;
23990;SDS011;12205;50.600;4.608;2023-06-19T06:38:44;8.52;;;2.50;;
23990;SDS011;12205;50.600;4.608;2023-06-19T06:41:11;7.90;;;2.58;;
23990;SDS011;12205;50.600;4.608;2023-06-19T06:43:40;11.50;;;2.55;;
23990;SDS011;12205;50.600;4.608;2023-06-19T06:46:10;9.20;;;2.50;;
23990;SDS011;12205;50.600;4.608;2023-06-19T06:48:37;9.48;;;2.30;;
23990;SDS011;12205;50.600;4.608;2023-06-19T06:51:04;7.40;;;2.78;;
23990;SDS011;12205;50.600;4.608;2023-06-19T06:53:32;14.15;;;2.95;;
23990;SDS011;12205;50.600;4.608;2023-06-19T06:55:59;8.30;;;2.58;;
23990;SDS011;12205;50.600;4.608;2023-06-19T06:58:26;9.00;;;2.58;;
23990;SDS011;12205;50.600;4.608;2023-06-19T07:00:53;7.38;;;2.63;;
23990;SDS011;12205;50.600;4.608;2023-06-19T07:03:23;6.85;;;2.63;;
23990;SDS011;12205;50.600;4.608;2023-06-19T07:05:50;6.97;;;2.78;;
23990;SDS011;12205;50.600;4.608;2023-06-19T07:08:17;11.73;;;2.72;;
23990;SDS011;12205;50.600;4.608;2023-06-19T07:10:44;9.95;;;2.40;;
23990;SDS011;12205;50.600;4.608;2023-06-19T07:13:11;8.75;;;2.72;;
23990;SDS011;12205;50.600;4.608;2023-06-19T07:15:39;7.70;;;2.35;;
23990;SDS011;12205;50.600;4.608;2023-06-19T07:18:06;10.27;;;2.70;;
23990;SDS011;12205;50.600;4.608;2023-06-19T07:20:35;7.88;;;2.70;;
23990;SDS011;12205;50.600;4.608;2023-06-19T07:23:02;8.13;;;2.67;;
23990;SDS011;12205;50.600;4.608;2023-06-19T07:25:29;7.78;;;2.70;;
23990;SDS011;12205;50.600;4.608;2023-06-19T07:27:59;11.98;;;3.28;;
23990;SDS011;12205;50.600;4.608;2023-06-19T07:30:26;7.90;;;2.40;;
23990;SDS011;12205;50.600;4.608;2023-06-19T07:32:53;10.23;;;2.88;;
23990;SDS011;12205;50.600;4.608;2023-06-19T07:35:20;7.38;;;2.42;;
23990;SDS011;12205;50.600;4.608;2023-06-19T07:37:49;9.40;;;2.80;;
23990;SDS011;12205;50.600;4.608;2023-06-19T07:40:16;10.93;;;2.67;;
23990;SDS011;12205;50.600;4.608;2023-06-19T07:42:43;6.57;;;2.90;;
23990;SDS011;12205;50.600;4.608;2023-06-19T07:45:11;8.32;;;2.70;;
23990;SDS011;12205;50.600;4.608;2023-06-19T07:47:39;7.88;;;2.80;;
23990;SDS011;12205;50.600;4.608;2023-06-19T07:50:06;9.00;;;2.90;;
23990;SDS011;12205;50.600;4.608;2023-06-19T07:52:35;8.73;;;2.60;;
23990;SDS011;12205;50.600;4.608;2023-06-19T07:55:03;9.98;;;2.65;;
23990;SDS011;12205;50.600;4.608;2023-06-19T07:57:31;7.60;;;2.30;;
23990;SDS011;12205;50.600;4.608;2023-06-19T07:59:59;6.88;;;2.40;;
23990;SDS011;12205;50.600;4.608;2023-06-19T08:02:36;10.20;;;2.78;;
23990;SDS011;12205;50.600;4.608;2023-06-19T08:05:04;8.55;;;2.60;;
23990;SDS011;12205;50.600;4.608;2023-06-19T08:07:33;7.13;;;2.67;;
23990;SDS011;12205;50.600;4.608;2023-06-19T08:10:00;11.63;;;2.72;;
23990;SDS011;12205;50.600;4.608;2023-06-19T08:12:30;11.32;;;2.60;;
23990;SDS011;12205;50.600;4.608;2023-06-19T08:14:57;7.60;;;2.63;;
23990;SDS011;12205;50.600;4.608;2023-06-19T08:17:24;8.80;;;2.90;;
23990;SDS011;12205;50.600;4.608;2023-06-19T08:19:51;9.23;;;2.42;;
23990;SDS011;12205;50.600;4.608;2023-06-19T08:22:18;15.95;;;3.17;;
23990;SDS011;12205;50.600;4.608;2023-06-19T08:24:47;8.55;;;2.70;;
23990;SDS011;12205;50.600;4.608;2023-06-19T08:27:14;10.95;;;2.70;;
23990;SDS011;12205;50.600;4.608;2023-06-19T08:29:42;11.80;;;2.65;;
23990;SDS011;12205;50.600;4.608;2023-06-19T08:32:09;12.25;;;2.65;;
23990;SDS011;12205;50.600;4.608;2023-06-19T08:34:36;8.23;;;2.75;;
23990;SDS011;12205;50.600;4.608;2023-06-19T08:37:04;7.82;;;2.40;;
23990;SDS011;12205;50.600;4.608;2023-06-19T08:39:32;9.25;;;2.40;;
23990;SDS011;12205;50.600;4.608;2023-06-19T08:41:59;7.50;;;2.72;;
23990;SDS011;12205;50.600;4.608;2023-06-19T08:44:26;8.52;;;2.53;;
23990;SDS011;12205;50.600;4.608;2023-06-19T08:46:54;7.97;;;2.75;;
23990;SDS011;12205;50.600;4.608;2023-06-19T08:49:23;10.40;;;3.03;;
23990;SDS011;12205;50.600;4.608;2023-06-19T08:51:50;9.13;;;2.70;;
23990;SDS011;12205;50.600;4.608;2023-06-19T08:54:17;10.18;;;2.83;;
23990;SDS011;12205;50.600;4.608;2023-06-19T08:56:44;12.65;;;3.05;;
23990;SDS011;12205;50.600;4.608;2023-06-19T08:59:14;11.57;;;2.80;;
23990;SDS011;12205;50.600;4.608;2023-06-19T09:01:46;10.88;;;2.72;;
23990;SDS011;12205;50.600;4.608;2023-06-19T09:04:18;7.72;;;2.83;;
23990;SDS011;12205;50.600;4.608;2023-06-19T09:06:47;6.82;;;2.65;;
23990;SDS011;12205;50.600;4.608;2023-06-19T09:09:16;9.63;;;2.58;;
23990;SDS011;12205;50.600;4.608;2023-06-19T09:11:55;7.45;;;2.47;;
23990;SDS011;12205;50.600;4.608;2023-06-19T09:14:36;6.40;;;2.50;;
23990;SDS011;12205;50.600;4.608;2023-06-19T09:17:06;6.28;;;2.28;;
23990;SDS011;12205;50.600;4.608;2023-06-19T09:22:12;6.22;;;2.58;;
23990;SDS011;12205;50.600;4.608;2023-06-19T09:24:40;12.15;;;2.75;;
23990;SDS011;12205;50.600;4.608;2023-06-19T09:27:08;11.20;;;2.60;;
23990;SDS011;12205;50.600;4.608;2023-06-19T09:29:38;8.90;;;2.72;;
23990;SDS011;12205;50.600;4.608;2023-06-19T09:32:16;6.75;;;2.60;;
23990;SDS011;12205;50.600;4.608;2023-06-19T09:34:47;8.95;;;2.67;;
23990;SDS011;12205;50.600;4.608;2023-06-19T09:39:48;7.97;;;2.65;;
23990;SDS011;12205;50.600;4.608;2023-06-19T09:42:21;9.15;;;2.58;;
23990;SDS011;12205;50.600;4.608;2023-06-19T09:44:55;5.70;;;2.13;;
23990;SDS011;12205;50.600;4.608;2023-06-19T09:47:29;6.40;;;2.00;;
23990;SDS011;12205;50.600;4.608;2023-06-19T09:50:01;6.60;;;2.30;;
23990;SDS011;12205;50.600;4.608;2023-06-19T09:52:31;10.27;;;2.33;;
23990;SDS011;12205;50.600;4.608;2023-06-19T09:55:08;6.38;;;2.28;;
23990;SDS011;12205;50.600;4.608;2023-06-19T09:57:38;9.75;;;2.45;;
23990;SDS011;12205;50.600;4.608;2023-06-19T10:00:07;10.02;;;2.55;;
23990;SDS011;12205;50.600;4.608;2023-06-19T10:02:37;6.67;;;1.90;;
23990;SDS011;12205;50.600;4.608;2023-06-19T10:05:08;7.05;;;2.20;;
23990;SDS011;12205;50.600;4.608;2023-06-19T10:07:38;8.13;;;2.08;;
23990;SDS011;12205;50.600;4.608;2023-06-19T10:10:08;8.20;;;2.63;;
23990;SDS011;12205;50.600;4.608;2023-06-19T10:12:38;6.40;;;2.20;;
23990;SDS011;12205;50.600;4.608;2023-06-19T10:15:11;4.88;;;1.90;;
23990;SDS011;12205;50.600;4.608;2023-06-19T10:17:43;5.20;;;2.30;;
23990;SDS011;12205;50.600;4.608;2023-06-19T10:22:57;5.70;;;2.20;;
23990;SDS011;12205;50.600;4.608;2023-06-19T10:25:29;6.72;;;2.05;;
23990;SDS011;12205;50.600;4.608;2023-06-19T10:27:58;5.47;;;2.08;;
23990;SDS011;12205;50.600;4.608;2023-06-19T10:30:26;8.43;;;2.20;;
23990;SDS011;12205;50.600;4.608;2023-06-19T10:32:54;6.78;;;2.08;;
23990;SDS011;12205;50.600;4.608;2023-06-19T10:35:22;7.57;;;2.03;;
23990;SDS011;12205;50.600;4.608;2023-06-19T10:37:51;8.07;;;2.00;;
23990;SDS011;12205;50.600;4.608;2023-06-19T10:40:18;6.43;;;1.90;;
23990;SDS011;12205;50.600;4.608;2023-06-19T10:42:45;6.43;;;2.00;;
23990;SDS011;12205;50.600;4.608;2023-06-19T10:45:13;8.38;;;2.30;;
23990;SDS011;12205;50.600;4.608;2023-06-19T10:47:46;6.32;;;2.08;;
23990;SDS011;12205;50.600;4.608;2023-06-19T10:50:13;6.38;;;1.90;;
23990;SDS011;12205;50.600;4.608;2023-06-19T10:52:43;5.07;;;1.88;;
23990;SDS011;12205;50.600;4.608;2023-06-19T10:55:13;11.05;;;2.10;;
23990;SDS011;12205;50.600;4.608;2023-06-19T10:57:40;7.00;;;1.95;;
23990;SDS011;12205;50.600;4.608;2023-06-19T11:00:11;6.80;;;1.90;;
23990;SDS011;12205;50.600;4.608;2023-06-19T11:02:49;7.05;;;2.03;;
23990;SDS011;12205;50.600;4.608;2023-06-19T11:05:16;10.02;;;2.20;;
23990;SDS011;12205;50.600;4.608;2023-06-19T11:07:51;9.52;;;2.33;;
23990;SDS011;12205;50.600;4.608;2023-06-19T11:10:20;6.13;;;1.80;;
23990;SDS011;12205;50.600;4.608;2023-06-19T11:12:49;7.80;;;1.77;;
23990;SDS011;12205;50.600;4.608;2023-06-19T11:15:20;5.88;;;1.70;;
23990;SDS011;12205;50.600;4.608;2023-06-19T11:17:55;9.85;;;2.10;;
23990;SDS011;12205;50.600;4.608;2023-06-19T11:20:23;6.43;;;1.50;;
23990;SDS011;12205;50.600;4.608;2023-06-19T11:22:55;4.80;;;1.90;;
23990;SDS011;12205;50.600;4.608;2023-06-19T11:25:34;4.68;;;1.55;;
23990;SDS011;12205;50.600;4.608;2023-06-19T11:28:02;3.55;;;1.60;;
23990;SDS011;12205;50.600;4.608;2023-06-19T11:30:30;4.43;;;1.50;;
23990;SDS011;12205;50.600;4.608;2023-06-19T11:32:59;8.32;;;1.67;;
23990;SDS011;12205;50.600;4.608;2023-06-19T11:35:32;4.22;;;1.48;;
23990;SDS011;12205;50.600;4.608;2023-06-19T11:38:06;7.45;;;2.03;;
23990;SDS011;12205;50.600;4.608;2023-06-19T11:40:40;6.28;;;1.55;;
23990;SDS011;12205;50.600;4.608;2023-06-19T11:43:08;5.85;;;1.80;;
23990;SDS011;12205;50.600;4.608;2023-06-19T11:45:47;6.05;;;1.50;;
23990;SDS011;12205;50.600;4.608;2023-06-19T11:48:21;12.10;;;1.60;;
23990;SDS011;12205;50.600;4.608;2023-06-19T11:50:49;5.72;;;1.40;;
23990;SDS011;12205;50.600;4.608;2023-06-19T11:53:19;6.97;;;1.80;;
23990;SDS011;12205;50.600;4.608;2023-06-19T11:55:47;5.95;;;1.50;;
23990;SDS011;12205;50.600;4.608;2023-06-19T11:58:14;7.57;;;1.65;;
23990;SDS011;12205;50.600;4.608;2023-06-19T12:00:42;11.10;;;1.77;;
23990;SDS011;12205;50.600;4.608;2023-06-19T12:03:09;4.18;;;1.45;;
23990;SDS011;12205;50.600;4.608;2023-06-19T12:05:36;3.92;;;1.20;;
23990;SDS011;12205;50.600;4.608;2023-06-19T12:08:04;5.25;;;1.40;;
23990;SDS011;12205;50.600;4.608;2023-06-19T12:10:33;4.28;;;1.00;;
23990;SDS011;12205;50.600;4.608;2023-06-19T12:13:01;13.82;;;1.40;;
23990;SDS011;12205;50.600;4.608;2023-06-19T12:15:28;5.28;;;1.23;;
23990;SDS011;12205;50.600;4.608;2023-06-19T12:17:55;5.63;;;1.30;;
23990;SDS011;12205;50.600;4.608;2023-06-19T12:20:24;6.93;;;1.60;;
23990;SDS011;12205;50.600;4.608;2023-06-19T12:22:51;5.72;;;1.33;;
23990;SDS011;12205;50.600;4.608;2023-06-19T12:25:18;5.93;;;1.25;;
23990;SDS011;12205;50.600;4.608;2023-06-19T12:27:47;3.10;;;0.80;;
23990;SDS011;12205;50.600;4.608;2023-06-19T12:30:15;5.07;;;1.20;;
23990;SDS011;12205;50.600;4.608;2023-06-19T12:32:42;6.72;;;1.40;;
23990;SDS011;12205;50.600;4.608;2023-06-19T12:35:09;6.35;;;1.40;;
23990;SDS011;12205;50.600;4.608;2023-06-19T12:37:36;3.92;;;1.25;;
23990;SDS011;12205;50.600;4.608;2023-06-19T12:40:04;2.53;;;0.88;;
23990;SDS011;12205;50.600;4.608;2023-06-19T12:42:34;5.22;;;1.10;;
23990;SDS011;12205;50.600;4.608;2023-06-19T12:45:04;7.65;;;1.20;;
23990;SDS011;12205;50.600;4.608;2023-06-19T12:47:32;7.65;;;1.60;;
23990;SDS011;12205;50.600;4.608;2023-06-19T12:49:59;4.18;;;1.10;;
23990;SDS011;12205;50.600;4.608;2023-06-19T12:52:26;7.40;;;1.17;;
23990;SDS011;12205;50.600;4.608;2023-06-19T12:54:53;2.97;;;0.98;;
23990;SDS011;12205;50.600;4.608;2023-06-19T12:57:21;6.28;;;1.33;;
23990;SDS011;12205;50.600;4.608;2023-06-19T12:59:48;2.78;;;0.93;;
23990;SDS011;12205;50.600;4.608;2023-06-19T13:02:16;5.32;;;1.00;;
23990;SDS011;12205;50.600;4.608;2023-06-19T13:04:43;3.30;;;1.05;;
23990;SDS011;12205;50.600;4.608;2023-06-19T13:07:10;4.72;;;1.20;;
23990;SDS011;12205;50.600;4.608;2023-06-19T13:09:38;4.22;;;1.17;;
23990;SDS011;12205;50.600;4.608;2023-06-19T13:12:06;6.47;;;1.13;;
23990;SDS011;12205;50.600;4.608;2023-06-19T13:14:33;5.95;;;1.15;;
23990;SDS011;12205;50.600;4.608;2023-06-19T13:17:01;5.00;;;1.25;;
23990;SDS011;12205;50.600;4.608;2023-06-19T13:19:29;4.07;;;0.90;;
23990;SDS011;12205;50.600;4.608;2023-06-19T13:21:56;4.72;;;0.90;;
23990;SDS011;12205;50.600;4.608;2023-06-19T13:24:23;6.18;;;1.00;;
23990;SDS011;12205;50.600;4.608;2023-06-19T13:26:52;4.55;;;1.40;;
23990;SDS011;12205;50.600;4.608;2023-06-19T13:29:20;3.83;;;0.98;;
23990;SDS011;12205;50.600;4.608;2023-06-19T13:31:47;5.80;;;1.10;;
23990;SDS011;12205;50.600;4.608;2023-06-19T13:34:14;3.97;;;1.02;;
23990;SDS011;12205;50.600;4.608;2023-06-19T13:36:45;6.07;;;0.95;;
23990;SDS011;12205;50.600;4.608;2023-06-19T13:39:12;2.83;;;0.80;;
23990;SDS011;12205;50.600;4.608;2023-06-19T13:41:40;4.30;;;0.82;;
23990;SDS011;12205;50.600;4.608;2023-06-19T13:44:07;3.22;;;0.90;;
23990;SDS011;12205;50.600;4.608;2023-06-19T13:46:34;2.38;;;0.80;;
23990;SDS011;12205;50.600;4.608;2023-06-19T13:49:01;5.68;;;1.00;;
23990;SDS011;12205;50.600;4.608;2023-06-19T13:51:28;2.13;;;0.90;;
23990;SDS011;12205;50.600;4.608;2023-06-19T13:53:57;5.47;;;1.08;;
23990;SDS011;12205;50.600;4.608;2023-06-19T13:56:24;6.00;;;0.90;;
23990;SDS011;12205;50.600;4.608;2023-06-19T13:58:51;3.38;;;0.90;;
23990;SDS011;12205;50.600;4.608;2023-06-19T14:01:18;4.53;;;0.93;;
23990;SDS011;12205;50.600;4.608;2023-06-19T14:03:45;3.45;;;0.90;;
23990;SDS011;12205;50.600;4.608;2023-06-19T14:06:12;4.35;;;0.90;;
23990;SDS011;12205;50.600;4.608;2023-06-19T14:08:39;3.95;;;0.93;;
23990;SDS011;12205;50.600;4.608;2023-06-19T14:11:08;9.63;;;1.35;;
23990;SDS011;12205;50.600;4.608;2023-06-19T14:13:35;4.18;;;0.90;;
23990;SDS011;12205;50.600;4.608;2023-06-19T14:16:02;4.00;;;1.27;;
23990;SDS011;12205;50.600;4.608;2023-06-19T14:18:29;4.85;;;1.13;;
23990;SDS011;12205;50.600;4.608;2023-06-19T14:20:57;3.47;;;1.08;;
23990;SDS011;12205;50.600;4.608;2023-06-19T14:23:24;3.70;;;0.93;;
23990;SDS011;12205;50.600;4.608;2023-06-19T14:25:51;5.95;;;1.05;;
23990;SDS011;12205;50.600;4.608;2023-06-19T14:28:19;4.80;;;0.82;;
23990;SDS011;12205;50.600;4.608;2023-06-19T14:30:46;4.47;;;1.00;;
23990;SDS011;12205;50.600;4.608;2023-06-19T14:33:13;5.20;;;1.02;;
23990;SDS011;12205;50.600;4.608;2023-06-19T14:35:41;2.13;;;0.80;;
23990;SDS011;12205;50.600;4.608;2023-06-19T14:38:10;3.13;;;1.00;;
23990;SDS011;12205;50.600;4.608;2023-06-19T14:40:38;3.67;;;1.10;;
23990;SDS011;12205;50.600;4.608;2023-06-19T14:43:05;3.53;;;0.98;;
23990;SDS011;12205;50.600;4.608;2023-06-19T14:45:35;3.85;;;0.90;;
23990;SDS011;12205;50.600;4.608;2023-06-19T14:48:04;4.22;;;0.90;;
23990;SDS011;12205;50.600;4.608;2023-06-19T14:50:32;3.90;;;0.90;;
23990;SDS011;12205;50.600;4.608;2023-06-19T14:53:00;5.55;;;1.05;;
23990;SDS011;12205;50.600;4.608;2023-06-19T14:55:27;3.17;;;1.05;;
23990;SDS011;12205;50.600;4.608;2023-06-19T14:57:54;3.08;;;1.10;;
23990;SDS011;12205;50.600;4.608;2023-06-19T15:00:22;3.38;;;1.00;;